Ancramdale, New York
Current Conditions -  °F | °C
As of 3:53 PM on Monday 24 Nov 2014 (Local Time) from KPOU Reporting Station
Clear Clear  
Wind Chill: 69°   Ceiling: Unl
Heat Index: 69°   Visibility: 10mi
Dew Point: 58°   Wind: 10mph
Humidity: 68%   Direction: 160°SSE
Pressure: 29.52"   Gusts: 16mph
Location:  42.02°N, 73.59°W
Report Text: KPOU 242053Z 16009G14KT 10SM CLR 21/14 A2952 RMK AO2 SLP992 T02060144 55009
Loading
Personal Weather Stations






























Interactive Weather Map New forecast layout! Learn more

10-Day Weather Forecast

Advertisements
Track Severe Weather on mobile